createdAt,value
2023-03-16T00:02:30.979Z,-1.60
2023-03-16T00:05:39.561Z,-1.70
2023-03-16T00:08:49.777Z,-1.80
2023-03-16T00:11:58.757Z,-1.90
2023-03-16T00:15:09.123Z,-1.90
2023-03-16T00:18:17.505Z,-2.00
2023-03-16T00:21:25.990Z,-1.90
2023-03-16T00:24:35.908Z,-1.90
2023-03-16T00:27:44.292Z,-1.90
2023-03-16T00:30:52.746Z,-2.00
2023-03-16T00:34:02.737Z,-2.00
2023-03-16T00:37:14.082Z,-2.00
2023-03-16T00:40:24.217Z,-2.00
2023-03-16T00:43:40.728Z,-2.00
2023-03-16T00:46:49.980Z,-2.10
2023-03-16T00:49:58.997Z,-2.20
2023-03-16T00:53:07.403Z,-2.30
2023-03-16T00:56:17.839Z,-2.30
2023-03-16T00:59:26.445Z,-2.20
2023-03-16T01:02:37.104Z,-2.20
2023-03-16T01:05:45.681Z,-2.30
2023-03-16T01:08:54.405Z,-2.40
2023-03-16T01:12:06.262Z,-2.50
2023-03-16T01:15:15.865Z,-2.50
2023-03-16T01:18:24.299Z,-2.50
2023-03-16T01:21:33.776Z,-2.60
2023-03-16T01:24:45.212Z,-2.60
2023-03-16T01:27:54.944Z,-2.60
2023-03-16T01:31:07.461Z,-2.70
2023-03-16T01:34:18.573Z,-2.70
2023-03-16T01:37:27.334Z,-2.70
2023-03-16T01:40:40.383Z,-2.70
2023-03-16T01:43:51.910Z,-2.70
2023-03-16T01:47:00.408Z,-2.70
2023-03-16T01:50:08.980Z,-2.70
2023-03-16T01:53:22.112Z,-2.70
2023-03-16T01:56:35.869Z,-2.70
2023-03-16T01:59:49.678Z,-2.60
2023-03-16T02:03:02.785Z,-2.50
2023-03-16T02:06:23.330Z,-2.60
2023-03-16T02:09:39.030Z,-2.80
2023-03-16T02:12:47.824Z,-3.00
2023-03-16T02:15:58.057Z,-2.90
2023-03-16T02:19:13.065Z,-2.90
2023-03-16T02:22:25.044Z,-2.90
2023-03-16T02:25:41.648Z,-2.90
2023-03-16T02:29:01.277Z,-3.00
2023-03-16T02:32:14.223Z,-3.10
2023-03-16T02:35:23.240Z,-3.20
2023-03-16T02:38:32.680Z,-3.20
2023-03-16T02:41:42.794Z,-3.20
2023-03-16T02:44:55.827Z,-3.10
2023-03-16T02:48:15.826Z,-3.20
2023-03-16T02:51:24.128Z,-3.30
2023-03-16T02:54:32.922Z,-3.30
2023-03-16T02:57:41.264Z,-3.30
2023-03-16T03:00:54.318Z,-3.20
2023-03-16T03:04:04.575Z,-3.20
2023-03-16T03:07:14.343Z,-3.30
2023-03-16T03:10:37.088Z,-3.50
2023-03-16T03:13:45.582Z,-3.60
2023-03-16T03:16:59.054Z,-3.50
2023-03-16T03:20:16.205Z,-3.50
2023-03-16T03:23:24.981Z,-3.60
2023-03-16T03:26:33.412Z,-3.70
2023-03-16T03:29:42.941Z,-3.50
2023-03-16T03:32:53.028Z,-3.50
2023-03-16T03:36:04.049Z,-3.60
2023-03-16T03:39:17.045Z,-3.50
2023-03-16T03:42:26.617Z,-3.60
2023-03-16T03:45:35.178Z,-3.70
2023-03-16T03:48:43.874Z,-3.80
2023-03-16T03:51:54.235Z,-3.80
2023-03-16T03:55:07.528Z,-3.90
2023-03-16T03:58:15.888Z,-3.90
2023-03-16T04:01:24.375Z,-3.90
2023-03-16T04:04:33.466Z,-4.00
2023-03-16T04:07:43.270Z,-4.00
2023-03-16T04:10:54.164Z,-4.10
2023-03-16T04:14:03.843Z,-4.10
2023-03-16T04:17:13.330Z,-4.10
2023-03-16T04:20:23.657Z,-4.20
2023-03-16T04:23:34.972Z,-4.10
2023-03-16T04:26:45.106Z,-4.00
2023-03-16T04:29:58.709Z,-4.10
2023-03-16T04:33:08.212Z,-4.00
2023-03-16T04:36:16.873Z,-4.00
2023-03-16T04:39:27.371Z,-4.10
2023-03-16T04:42:36.505Z,-4.20
2023-03-16T04:45:45.688Z,-4.20
2023-03-16T04:48:58.620Z,-4.20
2023-03-16T04:52:09.256Z,-4.10
2023-03-16T04:55:19.400Z,-4.10
2023-03-16T04:58:28.194Z,-4.00
2023-03-16T05:01:38.520Z,-4.10
2023-03-16T05:04:48.363Z,-3.90
2023-03-16T05:07:57.500Z,-4.10
2023-03-16T05:11:10.613Z,-4.20
2023-03-16T05:14:28.654Z,-4.20
2023-03-16T05:17:50.390Z,-4.00
2023-03-16T05:20:59.097Z,-4.00
2023-03-16T05:24:15.467Z,-3.90
2023-03-16T05:27:26.113Z,-4.00
2023-03-16T05:30:34.921Z,-3.90
2023-03-16T05:33:46.054Z,-3.90
2023-03-16T05:36:59.346Z,-4.00
2023-03-16T05:40:16.996Z,-3.90
2023-03-16T05:43:30.530Z,-3.90
2023-03-16T05:46:40.499Z,-4.00
2023-03-16T05:49:49.188Z,-4.00
2023-03-16T05:53:17.530Z,-4.00
2023-03-16T05:56:26.215Z,-3.80
2023-03-16T05:59:36.649Z,-3.70
2023-03-16T06:02:48.178Z,-3.70
2023-03-16T06:05:57.191Z,-3.50
2023-03-16T06:09:11.775Z,-3.40
2023-03-16T06:12:20.322Z,-3.30
2023-03-16T06:15:30.767Z,-3.10
2023-03-16T06:18:42.415Z,-2.10
2023-03-16T06:21:51.905Z,1.40
2023-03-16T06:25:00.506Z,1.70
2023-03-16T06:28:09.592Z,1.50
2023-03-16T06:31:19.481Z,1.10
2023-03-16T06:34:28.667Z,1.70
2023-03-16T06:37:38.537Z,2.70
2023-03-16T06:41:01.664Z,2.90
2023-03-16T06:44:11.579Z,2.30
2023-03-16T06:47:28.290Z,3.70
2023-03-16T06:50:37.119Z,4.50
2023-03-16T06:53:45.932Z,6.70
2023-03-16T06:56:54.539Z,7.20
2023-03-16T07:00:04.813Z,6.40
2023-03-16T07:03:14.656Z,4.70
2023-03-16T07:06:29.384Z,4.00
2023-03-16T07:09:41.071Z,3.50
2023-03-16T07:12:50.367Z,3.10
2023-03-16T07:15:59.345Z,2.80
2023-03-16T07:19:09.492Z,2.90
2023-03-16T07:22:18.140Z,3.20
2023-03-16T07:25:26.686Z,4.00
2023-03-16T07:28:36.714Z,5.10
2023-03-16T07:31:47.066Z,5.50
2023-03-16T07:35:02.252Z,5.50
2023-03-16T07:38:13.607Z,6.00
2023-03-16T07:41:22.716Z,7.40
2023-03-16T07:44:32.423Z,9.70
2023-03-16T07:47:40.796Z,10.40
2023-03-16T07:51:01.813Z,9.90
2023-03-16T07:54:11.364Z,9.80
2023-03-16T07:57:20.253Z,9.70
2023-03-16T08:00:29.670Z,9.70
2023-03-16T08:03:39.281Z,11.00
2023-03-16T08:06:50.286Z,11.20
2023-03-16T08:09:58.686Z,11.10
2023-03-16T08:13:14.109Z,11.50
2023-03-16T08:16:26.749Z,10.80
2023-03-16T08:19:36.002Z,10.00
2023-03-16T08:22:49.790Z,9.90
2023-03-16T08:26:03.189Z,9.90
2023-03-16T08:29:11.907Z,10.30
2023-03-16T08:32:20.664Z,10.60
2023-03-16T08:35:30.734Z,11.00
2023-03-16T08:38:41.148Z,10.70
2023-03-16T08:41:52.110Z,10.90
2023-03-16T08:45:27.021Z,11.70
2023-03-16T08:48:36.422Z,13.40
2023-03-16T08:51:45.245Z,13.20
2023-03-16T08:55:03.020Z,12.70
2023-03-16T08:58:12.946Z,11.90
2023-03-16T09:01:22.309Z,10.20
2023-03-16T09:04:30.965Z,10.00
2023-03-16T09:07:40.062Z,9.40
2023-03-16T09:10:50.749Z,9.40
2023-03-16T09:13:59.049Z,9.10
2023-03-16T09:17:08.871Z,9.20
2023-03-16T09:20:26.460Z,9.90
2023-03-16T09:23:37.599Z,9.70
2023-03-16T09:26:47.448Z,9.90
2023-03-16T09:29:56.673Z,10.60
2023-03-16T09:33:05.281Z,10.00
2023-03-16T09:36:14.278Z,10.00
2023-03-16T09:39:22.950Z,9.90
2023-03-16T09:42:38.292Z,9.20
2023-03-16T09:45:53.937Z,10.10
2023-03-16T09:49:02.588Z,9.30
2023-03-16T09:52:19.455Z,8.90
2023-03-16T09:55:31.811Z,8.70
2023-03-16T09:58:41.871Z,8.20
2023-03-16T10:02:06.802Z,7.90
2023-03-16T10:05:18.411Z,8.00
2023-03-16T10:08:31.783Z,7.90
2023-03-16T10:11:42.729Z,7.60
2023-03-16T10:14:57.811Z,7.60
2023-03-16T10:18:13.795Z,7.40
2023-03-16T10:21:24.942Z,7.70
2023-03-16T10:24:43.111Z,7.60
2023-03-16T10:27:51.780Z,6.90
2023-03-16T10:31:04.296Z,7.10
2023-03-16T10:34:13.168Z,7.30
2023-03-16T10:37:22.577Z,7.70
2023-03-16T10:40:33.425Z,7.90
2023-03-16T10:43:42.073Z,7.30
2023-03-16T10:47:00.370Z,7.80
2023-03-16T10:50:17.617Z,7.50
2023-03-16T10:53:29.993Z,7.40
2023-03-16T10:56:38.433Z,7.40
2023-03-16T10:59:51.109Z,7.20
2023-03-16T11:03:02.598Z,7.20
2023-03-16T11:06:22.877Z,7.10
2023-03-16T11:09:35.029Z,7.20
2023-03-16T11:12:43.786Z,7.50
2023-03-16T11:15:57.447Z,7.50
2023-03-16T11:19:19.016Z,7.00
2023-03-16T11:22:30.176Z,7.00
2023-03-16T11:25:46.971Z,6.70
2023-03-16T11:29:02.335Z,6.90
2023-03-16T11:32:15.693Z,6.70
2023-03-16T11:35:31.981Z,6.50
2023-03-16T11:38:49.512Z,6.40
2023-03-16T11:42:10.687Z,6.50
2023-03-16T11:45:24.096Z,6.30
2023-03-16T11:48:38.732Z,6.50
2023-03-16T11:51:55.283Z,6.50
2023-03-16T11:55:19.686Z,6.60
2023-03-16T11:58:44.424Z,6.70
2023-03-16T12:02:06.254Z,6.60
2023-03-16T12:05:44.957Z,6.70
2023-03-16T12:09:23.888Z,6.50
2023-03-16T12:12:42.784Z,6.20
2023-03-16T12:15:55.271Z,6.30
2023-03-16T12:19:07.313Z,6.40
2023-03-16T12:22:21.605Z,6.30
2023-03-16T12:25:34.262Z,6.40
2023-03-16T12:28:43.946Z,6.50
2023-03-16T12:31:56.140Z,6.50
2023-03-16T12:35:14.448Z,6.40
2023-03-16T12:38:35.320Z,6.50
2023-03-16T12:41:57.341Z,6.40
2023-03-16T12:45:12.818Z,6.30
2023-03-16T12:48:29.054Z,6.30
2023-03-16T12:51:38.788Z,6.40
2023-03-16T12:54:52.994Z,6.60
2023-03-16T12:58:06.507Z,6.70
2023-03-16T13:01:18.735Z,6.60
2023-03-16T13:04:34.487Z,6.70
2023-03-16T13:07:49.376Z,6.70
2023-03-16T13:11:07.347Z,6.50
2023-03-16T13:14:38.204Z,6.50
2023-03-16T13:17:48.443Z,6.50
2023-03-16T13:20:59.467Z,6.30
2023-03-16T13:24:24.394Z,6.30
2023-03-16T13:27:35.294Z,6.30
2023-03-16T13:30:48.826Z,6.10
2023-03-16T13:34:00.362Z,6.00
2023-03-16T13:37:15.513Z,6.00
2023-03-16T13:40:27.529Z,5.80
2023-03-16T13:43:40.929Z,5.90
2023-03-16T13:46:51.115Z,5.80
2023-03-16T13:50:00.858Z,5.80
2023-03-16T13:53:16.736Z,5.80
2023-03-16T13:56:29.390Z,5.80
2023-03-16T13:59:38.120Z,5.70
2023-03-16T14:02:50.817Z,5.80
2023-03-16T14:05:59.783Z,5.80
2023-03-16T14:09:15.831Z,5.80
2023-03-16T14:12:27.519Z,5.70
2023-03-16T14:15:38.693Z,5.70
2023-03-16T14:18:52.850Z,5.60
2023-03-16T14:22:04.187Z,5.70
2023-03-16T14:25:22.148Z,5.80
2023-03-16T14:28:33.361Z,5.80
2023-03-16T14:31:41.932Z,5.70
2023-03-16T14:34:52.146Z,5.70
2023-03-16T14:38:21.776Z,5.80
2023-03-16T14:41:31.985Z,5.80
2023-03-16T14:44:40.484Z,5.80
2023-03-16T14:47:50.818Z,5.80
2023-03-16T14:51:02.844Z,5.70
2023-03-16T14:54:16.306Z,5.70
2023-03-16T14:57:25.984Z,5.70
2023-03-16T15:00:42.738Z,5.60
2023-03-16T15:03:54.935Z,5.60
2023-03-16T15:07:20.227Z,5.60
2023-03-16T15:10:31.975Z,5.50
2023-03-16T15:13:53.382Z,5.50
2023-03-16T15:17:01.912Z,5.40
2023-03-16T15:20:12.260Z,5.30
2023-03-16T15:23:22.249Z,5.40
2023-03-16T15:26:31.390Z,5.30
2023-03-16T15:29:39.863Z,5.30
2023-03-16T15:32:48.461Z,5.30
2023-03-16T15:35:58.698Z,5.40
2023-03-16T15:39:10.052Z,5.30
2023-03-16T15:42:20.032Z,5.30
2023-03-16T15:45:28.655Z,5.20
2023-03-16T15:48:37.284Z,5.20
2023-03-16T15:51:45.736Z,5.20
2023-03-16T15:54:57.487Z,5.10
2023-03-16T15:58:07.728Z,5.10
2023-03-16T16:01:23.362Z,5.10
2023-03-16T16:04:32.093Z,5.00
2023-03-16T16:07:40.540Z,5.00
2023-03-16T16:10:53.453Z,5.00
2023-03-16T16:14:02.152Z,5.00
2023-03-16T16:17:13.576Z,5.00
2023-03-16T16:20:26.279Z,5.00
2023-03-16T16:23:34.669Z,4.90
2023-03-16T16:26:53.722Z,4.90
2023-03-16T16:30:03.523Z,4.90
2023-03-16T16:33:26.705Z,4.90
2023-03-16T16:36:35.093Z,4.90
2023-03-16T16:39:43.593Z,4.90
2023-03-16T16:42:55.054Z,4.90
2023-03-16T16:46:06.546Z,4.90
2023-03-16T16:49:17.543Z,4.80
2023-03-16T16:52:26.730Z,4.80
2023-03-16T16:55:35.165Z,4.70
2023-03-16T16:58:45.498Z,4.70
2023-03-16T17:01:55.085Z,4.70
2023-03-16T17:05:03.486Z,4.60
2023-03-16T17:08:14.282Z,4.60
2023-03-16T17:11:25.662Z,4.60
2023-03-16T17:14:36.428Z,4.60
2023-03-16T17:17:45.877Z,4.60
2023-03-16T17:20:55.162Z,4.60
2023-03-16T17:24:03.763Z,4.50
2023-03-16T17:27:14.341Z,4.60
2023-03-16T17:30:30.312Z,4.60
2023-03-16T17:33:38.754Z,4.60
2023-03-16T17:36:47.698Z,4.60
2023-03-16T17:39:57.604Z,4.60
2023-03-16T17:43:13.302Z,4.60
2023-03-16T17:46:25.493Z,4.60
2023-03-16T17:49:33.900Z,4.60
2023-03-16T17:52:42.289Z,4.60
2023-03-16T17:55:50.647Z,4.60
2023-03-16T17:59:00.680Z,4.60
2023-03-16T18:02:34.659Z,4.60
2023-03-16T18:05:43.792Z,4.50
2023-03-16T18:08:52.284Z,4.60
2023-03-16T18:12:01.262Z,4.60
2023-03-16T18:15:16.563Z,4.60
2023-03-16T18:18:29.069Z,4.50
2023-03-16T18:21:37.622Z,4.60
2023-03-16T18:24:46.342Z,4.60
2023-03-16T18:27:54.669Z,4.60
2023-03-16T18:31:05.604Z,4.50
2023-03-16T18:34:23.810Z,4.60
2023-03-16T18:37:32.774Z,4.70
2023-03-16T18:40:41.529Z,4.70
2023-03-16T18:43:50.346Z,4.80
2023-03-16T18:47:03.800Z,4.80
2023-03-16T18:50:21.395Z,4.80
2023-03-16T18:53:29.983Z,4.70
2023-03-16T18:56:38.794Z,4.70
2023-03-16T18:59:47.724Z,4.70
2023-03-16T19:02:59.108Z,4.70
2023-03-16T19:06:15.092Z,4.70
2023-03-16T19:09:25.824Z,4.70
2023-03-16T19:12:34.270Z,4.70
2023-03-16T19:15:42.693Z,4.60
2023-03-16T19:18:51.441Z,4.70
2023-03-16T19:22:09.738Z,4.60
2023-03-16T19:25:20.611Z,4.70
2023-03-16T19:28:33.973Z,4.70
2023-03-16T19:31:42.735Z,4.60
2023-03-16T19:34:51.309Z,4.70
2023-03-16T19:38:01.198Z,4.70
2023-03-16T19:41:23.934Z,4.70
2023-03-16T19:44:32.362Z,4.60
2023-03-16T19:47:41.304Z,4.70
2023-03-16T19:50:51.239Z,4.70
2023-03-16T19:54:01.542Z,4.70
2023-03-16T19:57:15.074Z,4.60
2023-03-16T20:00:25.379Z,4.60
2023-03-16T20:03:37.350Z,4.70
2023-03-16T20:06:48.731Z,4.70
2023-03-16T20:10:00.086Z,4.70
2023-03-16T20:13:11.745Z,4.60
2023-03-16T20:16:23.793Z,4.60
2023-03-16T20:19:32.174Z,4.60
2023-03-16T20:22:40.910Z,4.60
2023-03-16T20:25:52.185Z,4.50
2023-03-16T20:29:01.549Z,4.60
2023-03-16T20:32:18.097Z,4.50
2023-03-16T20:35:31.124Z,4.50
2023-03-16T20:38:40.231Z,4.50
2023-03-16T20:41:50.636Z,4.50
2023-03-16T20:44:59.893Z,4.50
2023-03-16T20:48:15.602Z,4.40
2023-03-16T20:51:24.714Z,4.40
2023-03-16T20:54:33.104Z,4.30
2023-03-16T20:57:43.736Z,4.30
2023-03-16T21:00:57.587Z,4.30
2023-03-16T21:04:08.342Z,4.30
2023-03-16T21:07:16.739Z,4.30
2023-03-16T21:10:28.022Z,4.30
2023-03-16T21:13:38.819Z,4.30
2023-03-16T21:16:47.632Z,4.30
2023-03-16T21:19:56.504Z,4.20
2023-03-16T21:23:05.250Z,4.30
2023-03-16T21:26:18.832Z,4.30
2023-03-16T21:29:28.735Z,4.30
2023-03-16T21:32:37.085Z,4.30
2023-03-16T21:35:45.764Z,4.40
2023-03-16T21:38:55.822Z,4.50
2023-03-16T21:42:04.340Z,4.40
2023-03-16T21:45:15.918Z,4.40
2023-03-16T21:48:25.995Z,4.40
2023-03-16T21:51:34.946Z,4.30
2023-03-16T21:54:43.334Z,4.20
2023-03-16T21:57:51.972Z,4.20
2023-03-16T22:01:01.749Z,4.20
2023-03-16T22:04:15.580Z,4.20
2023-03-16T22:07:24.155Z,4.10
2023-03-16T22:10:32.524Z,4.10
2023-03-16T22:13:41.407Z,4.20
2023-03-16T22:16:51.750Z,4.20
2023-03-16T22:20:00.513Z,4.20
2023-03-16T22:23:24.108Z,4.20
2023-03-16T22:26:32.967Z,4.20
2023-03-16T22:29:44.429Z,4.20
2023-03-16T22:32:57.845Z,4.20
2023-03-16T22:36:09.321Z,4.30
2023-03-16T22:39:17.745Z,4.30
2023-03-16T22:42:29.018Z,4.20
2023-03-16T22:45:37.470Z,4.20
2023-03-16T22:48:47.337Z,4.10
2023-03-16T22:51:58.600Z,4.10
2023-03-16T22:55:08.820Z,4.10
2023-03-16T22:58:21.420Z,4.10
2023-03-16T23:01:34.916Z,4.10
2023-03-16T23:04:44.899Z,4.10
2023-03-16T23:07:53.933Z,4.00
2023-03-16T23:11:02.716Z,4.00
2023-03-16T23:14:14.849Z,4.00
2023-03-16T23:17:23.802Z,4.00
2023-03-16T23:20:34.070Z,3.90
2023-03-16T23:23:48.208Z,3.90
2023-03-16T23:26:59.679Z,3.90
2023-03-16T23:30:16.824Z,4.00
2023-03-16T23:33:25.213Z,4.00
2023-03-16T23:36:34.958Z,3.90
2023-03-16T23:39:43.620Z,3.90
2023-03-16T23:42:54.125Z,3.90
2023-03-16T23:46:03.045Z,3.90
2023-03-16T23:49:20.259Z,3.90
2023-03-16T23:52:30.012Z,3.80
2023-03-16T23:55:38.391Z,3.80
2023-03-16T23:58:47.009Z,3.80
